Time;durP1;ratioP1;P1;durP2;ratioP2;P2;SDS_P1;SDS_P2;PMS_P1;PMS_P2;Temp;Humidity;BMP_temperature;BMP_pressure;BME280_temperature;BME280_humidity;BME280_pressure;Samples;Min_cycle;Max_cycle;Signal;HPM_P1;HPM_P2
2023/01/26 00:00:09;;;;;;;89.57;39.00;;;0.40;99.90;;;;;;5050117;28;20041;-72
2023/01/26 00:02:35;;;;;;;91.43;39.78;;;0.30;99.90;;;;;;5051028;28;20045;-72
2023/01/26 00:05:00;;;;;;;93.20;40.25;;;0.40;99.90;;;;;;5050128;28;20408;-72
2023/01/26 00:07:27;;;;;;;84.47;36.60;;;0.40;99.90;;;;;;5048179;28;20051;-73
2023/01/26 00:09:53;;;;;;;94.50;38.67;;;0.30;99.90;;;;;;5047796;28;20041;-72
2023/01/26 00:12:19;;;;;;;86.80;37.60;;;0.40;99.90;;;;;;5047894;28;20090;-72
2023/01/26 00:14:50;;;;;;;93.47;38.22;;;0.30;99.90;;;;;;5048546;28;20045;-72
2023/01/26 00:17:24;;;;;;;86.38;37.78;;;0.30;99.90;;;;;;5046953;28;20037;-72
2023/01/26 00:19:57;;;;;;;87.97;37.78;;;0.40;99.90;;;;;;5044956;28;20102;-72
2023/01/26 00:22:24;;;;;;;94.15;39.85;;;0.40;99.90;;;;;;5046028;28;20041;-72
2023/01/26 00:24:50;;;;;;;87.15;38.20;;;0.40;99.90;;;;;;5042256;28;20087;-72
2023/01/26 00:27:16;;;;;;;82.25;35.15;;;0.40;99.90;;;;;;5046360;28;20044;-72
2023/01/26 00:29:41;;;;;;;82.78;36.72;;;0.40;99.90;;;;;;5040551;28;20045;-72
2023/01/26 00:32:07;;;;;;;91.43;37.67;;;0.30;99.90;;;;;;5049166;28;20044;-72
2023/01/26 00:34:33;;;;;;;88.00;37.75;;;0.40;99.90;;;;;;5047066;28;20052;-72
2023/01/26 00:36:58;;;;;;;86.00;36.25;;;0.40;99.90;;;;;;5047255;28;20068;-73
2023/01/26 00:39:24;;;;;;;91.18;37.55;;;0.30;99.90;;;;;;5049062;28;20045;-73
2023/01/26 00:44:37;;;;;;;89.90;38.13;;;0.30;99.90;;;;;;5041155;28;20037;-71
2023/01/26 00:47:07;;;;;;;90.55;39.25;;;0.40;99.90;;;;;;5046895;28;20053;-72
2023/01/26 00:49:33;;;;;;;98.97;38.10;;;0.40;99.90;;;;;;5046136;28;20057;-73
2023/01/26 00:51:59;;;;;;;95.20;38.85;;;0.40;99.90;;;;;;5050321;28;20078;-72
2023/01/26 00:54:25;;;;;;;94.10;37.92;;;0.40;99.90;;;;;;5031884;28;20045;-72
2023/01/26 00:56:51;;;;;;;92.70;37.00;;;0.40;99.90;;;;;;5048880;28;20087;-72
2023/01/26 00:59:17;;;;;;;93.80;38.78;;;0.40;99.90;;;;;;5048459;28;20079;-72
2023/01/26 01:01:43;;;;;;;94.50;39.67;;;0.40;99.90;;;;;;5048487;28;20040;-72
2023/01/26 01:04:09;;;;;;;100.70;40.10;;;0.40;99.90;;;;;;5049830;28;20041;-72
2023/01/26 01:06:34;;;;;;;100.72;42.15;;;0.40;99.90;;;;;;5048359;28;20043;-72
2023/01/26 01:09:00;;;;;;;100.55;40.15;;;0.40;99.90;;;;;;5046379;28;20045;-72
2023/01/26 01:11:26;;;;;;;95.60;39.00;;;0.40;99.90;;;;;;5047266;28;20041;-72
2023/01/26 01:13:51;;;;;;;97.57;39.28;;;0.40;99.90;;;;;;5047370;28;20041;-73
2023/01/26 01:16:17;;;;;;;92.63;39.22;;;0.40;99.90;;;;;;5048272;28;20087;-72
2023/01/26 01:18:43;;;;;;;99.65;38.50;;;0.40;99.90;;;;;;5046225;28;20121;-72
2023/01/26 01:21:13;;;;;;;98.60;39.33;;;0.40;99.90;;;;;;5048190;28;20048;-72
2023/01/26 01:23:40;;;;;;;96.50;38.63;;;0.40;99.90;;;;;;5052973;28;20131;-73
2023/01/26 01:26:07;;;;;;;94.65;38.40;;;0.40;99.90;;;;;;5051332;28;20033;-73
2023/01/26 01:28:33;;;;;;;98.80;38.65;;;0.30;99.90;;;;;;5052732;28;20091;-74
2023/01/26 01:30:59;;;;;;;99.63;40.13;;;0.30;99.90;;;;;;5051836;28;20072;-73
2023/01/26 01:33:24;;;;;;;96.55;38.30;;;0.40;99.90;;;;;;5047931;28;20037;-73
2023/01/26 01:36:05;;;;;;;93.43;37.28;;;0.30;99.90;;;;;;5052483;28;20155;-73
2023/01/26 01:38:31;;;;;;;98.70;37.28;;;0.40;99.90;;;;;;5052984;28;20048;-74
2023/01/26 01:40:57;;;;;;;108.05;41.78;;;0.40;99.90;;;;;;5051571;28;20091;-74
2023/01/26 01:43:23;;;;;;;96.68;38.55;;;0.40;99.90;;;;;;5049402;28;20043;-74
2023/01/26 01:45:50;;;;;;;95.00;38.42;;;0.40;99.90;;;;;;5050600;28;20147;-73
2023/01/26 01:48:45;;;;;;;105.50;42.67;;;0.40;99.90;;;;;;5051357;28;20049;-74
2023/01/26 01:51:24;;;;;;;94.25;36.13;;;0.40;99.90;;;;;;5051774;28;20044;-73
2023/01/26 01:53:51;;;;;;;97.38;36.70;;;0.40;99.90;;;;;;5047326;28;20131;-73
2023/01/26 01:56:22;;;;;;;100.28;39.72;;;0.40;99.90;;;;;;5051697;28;20488;-73
2023/01/26 01:58:52;;;;;;;92.88;37.95;;;0.40;99.90;;;;;;5050694;28;20450;-73
2023/01/26 02:01:18;;;;;;;92.25;36.38;;;0.40;99.90;;;;;;5048970;28;20037;-73
2023/01/26 02:03:46;;;;;;;89.25;36.08;;;0.40;99.90;;;;;;5052259;28;20393;-73
2023/01/26 02:06:26;;;;;;;82.38;34.58;;;0.40;99.90;;;;;;5044909;28;20174;-73
2023/01/26 02:08:54;;;;;;;89.88;35.33;;;0.40;99.90;;;;;;5048100;28;20392;-73
2023/01/26 02:11:28;;;;;;;90.22;36.47;;;0.40;99.90;;;;;;5050988;28;20431;-73
2023/01/26 02:13:56;;;;;;;86.75;34.70;;;0.40;99.90;;;;;;5046385;28;20361;-73
2023/01/26 02:16:22;;;;;;;86.57;34.50;;;0.50;99.90;;;;;;5054339;28;20120;-73
2023/01/26 02:18:48;;;;;;;85.00;35.05;;;0.50;99.90;;;;;;5048757;28;20136;-74
2023/01/26 02:21:20;;;;;;;88.60;36.58;;;0.40;99.90;;;;;;5050856;28;20037;-73
2023/01/26 02:24:03;;;;;;;90.22;35.58;;;0.50;99.90;;;;;;5044883;28;20046;-73
2023/01/26 02:26:32;;;;;;;92.07;34.97;;;0.50;99.90;;;;;;5049155;28;20557;-74
2023/01/26 02:28:58;;;;;;;88.75;34.88;;;0.40;99.90;;;;;;5049736;28;20446;-74
2023/01/26 02:31:25;;;;;;;86.72;35.08;;;0.50;99.90;;;;;;5047619;28;20049;-74
2023/01/26 02:33:51;;;;;;;82.22;33.42;;;0.50;99.90;;;;;;5051580;28;20136;-73
2023/01/26 02:36:23;;;;;;;85.28;36.17;;;0.40;99.90;;;;;;5051363;28;20053;-74
2023/01/26 02:39:04;;;;;;;85.68;34.63;;;0.50;99.90;;;;;;5049527;28;20060;-73
2023/01/26 02:44:15;;;;;;;80.18;32.08;;;0.50;99.90;;;;;;5048173;28;20053;-73
2023/01/26 02:46:40;;;;;;;74.22;31.08;;;0.50;99.90;;;;;;5051631;28;20045;-73
2023/01/26 02:51:50;;;;;;;69.60;30.85;;;0.50;99.90;;;;;;5044222;28;20045;-73
2023/01/26 02:57:16;;;;;;;67.60;28.30;;;0.40;99.90;;;;;;4992653;28;20057;-71
2023/01/26 02:59:42;;;;;;;60.75;25.80;;;0.50;99.90;;;;;;5033587;28;20061;-72
2023/01/26 03:02:08;;;;;;;62.65;26.58;;;0.50;99.90;;;;;;5050456;28;20422;-72
2023/01/26 03:04:34;;;;;;;61.42;25.60;;;0.50;99.90;;;;;;5051038;28;20773;-71
2023/01/26 03:06:59;;;;;;;51.15;23.40;;;0.50;99.90;;;;;;5050203;28;20049;-72
2023/01/26 03:09:25;;;;;;;50.13;22.90;;;0.60;99.90;;;;;;5046336;28;20536;-72
2023/01/26 03:11:50;;;;;;;51.25;22.85;;;0.60;99.90;;;;;;5049991;28;20052;-72
2023/01/26 03:14:16;;;;;;;52.42;22.73;;;0.60;99.90;;;;;;5050581;28;20025;-72
2023/01/26 03:16:42;;;;;;;56.75;23.67;;;0.60;99.90;;;;;;5048650;28;20102;-71
2023/01/26 03:27:27;;;;;;;48.50;19.67;;;0.50;99.90;;;;;;5047730;28;20139;-72
2023/01/26 03:29:54;;;;;;;51.92;23.73;;;0.50;99.90;;;;;;5047084;28;20124;-72
2023/01/26 03:32:20;;;;;;;50.35;21.15;;;0.50;99.90;;;;;;5045734;28;20060;-72
2023/01/26 03:34:45;;;;;;;45.55;19.77;;;0.50;99.90;;;;;;5049689;28;20048;-72
2023/01/26 03:37:11;;;;;;;53.00;20.77;;;0.50;99.90;;;;;;5051866;28;20140;-72
2023/01/26 03:56:23;;;;;;;;;;;0.60;99.90;;;;;;5048540;28;20467;-72
2023/01/26 03:58:56;;;;;;;42.75;17.30;;;0.50;99.90;;;;;;5049792;28;19925;-71
2023/01/26 04:01:31;;;;;;;40.38;17.73;;;0.50;99.90;;;;;;5046498;28;20052;-72
2023/01/26 04:09:30;;;;;;;39.55;16.75;;;0.60;99.90;;;;;;5045739;28;20048;-71
2023/01/26 04:11:56;;;;;;;33.30;15.32;;;0.60;99.90;;;;;;5047569;28;20479;-72
2023/01/26 04:22:44;;;;;;;31.23;14.60;;;0.60;99.90;;;;;;5045459;28;20045;-70
2023/01/26 04:25:17;;;;;;;34.00;15.02;;;0.60;99.90;;;;;;5036195;28;20049;-72
2023/01/26 04:27:44;;;;;;;33.42;15.15;;;0.70;99.90;;;;;;5046854;28;20044;-71
2023/01/26 04:30:12;;;;;;;34.00;14.85;;;0.60;99.90;;;;;;5038574;28;20515;-72
2023/01/26 04:32:38;;;;;;;31.88;14.60;;;0.60;99.90;;;;;;5048328;28;20044;-72
2023/01/26 04:35:05;;;;;;;31.92;13.95;;;0.70;99.90;;;;;;5046262;28;20179;-72
2023/01/26 04:37:31;;;;;;;28.73;13.67;;;0.70;99.90;;;;;;5048004;28;20059;-72
2023/01/26 04:39:56;;;;;;;29.15;13.27;;;0.60;99.90;;;;;;5051828;28;20053;-72
2023/01/26 04:42:25;;;;;;;27.63;11.98;;;0.60;99.90;;;;;;5042535;28;20111;-72
2023/01/26 04:44:51;;;;;;;25.77;12.00;;;0.60;99.90;;;;;;5043066;28;20073;-71
2023/01/26 04:47:17;;;;;;;24.95;10.98;;;0.70;99.90;;;;;;5044296;28;20052;-71
2023/01/26 04:49:43;;;;;;;22.15;10.73;;;0.60;99.90;;;;;;5046992;28;20032;-71
2023/01/26 04:52:08;;;;;;;22.23;10.55;;;0.60;99.90;;;;;;5044725;28;20083;-71
2023/01/26 04:54:34;;;;;;;23.33;10.60;;;0.60;99.90;;;;;;5045260;28;20143;-74
2023/01/26 04:56:59;;;;;;;22.88;10.45;;;0.60;99.90;;;;;;5046600;28;20530;-71
2023/01/26 04:59:25;;;;;;;19.52;9.90;;;0.70;99.90;;;;;;5049635;28;20124;-71
2023/01/26 05:01:51;;;;;;;20.88;9.75;;;0.70;99.90;;;;;;5083242;28;20087;-71
2023/01/26 05:04:16;;;;;;;23.98;10.55;;;0.70;99.90;;;;;;5063504;28;20077;-71
2023/01/26 05:06:42;;;;;;;25.77;11.15;;;0.70;99.90;;;;;;5048589;28;20057;-71
2023/01/26 05:09:07;;;;;;;22.85;10.55;;;0.70;99.90;;;;;;5032175;28;20038;-71
2023/01/26 05:11:33;;;;;;;24.67;11.05;;;0.70;99.90;;;;;;5043376;28;20037;-71
2023/01/26 05:13:59;;;;;;;24.83;10.45;;;0.70;99.90;;;;;;5048413;28;20052;-71
2023/01/26 05:16:25;;;;;;;25.30;11.15;;;0.70;99.90;;;;;;5044439;28;20484;-71
2023/01/26 05:18:50;;;;;;;23.25;10.18;;;0.70;99.90;;;;;;5046129;28;20041;-71
2023/01/26 05:21:16;;;;;;;23.77;10.13;;;0.70;99.90;;;;;;5043728;28;20124;-71
2023/01/26 05:23:42;;;;;;;22.65;11.00;;;0.70;99.90;;;;;;5045524;28;20377;-71
2023/01/26 05:26:07;;;;;;;25.35;10.88;;;0.70;99.90;;;;;;5048173;28;21155;-71
2023/01/26 05:28:34;;;;;;;22.33;10.95;;;0.70;99.90;;;;;;5038477;28;20045;-74
2023/01/26 05:31:00;;;;;;;21.35;10.07;;;0.70;99.90;;;;;;5048570;28;20396;-71
2023/01/26 05:33:26;;;;;;;24.60;11.07;;;0.70;99.90;;;;;;5047972;28;20048;-71
2023/01/26 05:35:52;;;;;;;21.60;10.15;;;0.80;99.90;;;;;;5047140;28;20045;-71
2023/01/26 05:38:19;;;;;;;23.58;10.32;;;0.80;99.90;;;;;;5033687;28;20080;-71
2023/01/26 05:40:45;;;;;;;19.20;8.90;;;0.80;99.90;;;;;;5042153;28;20053;-71
2023/01/26 05:43:12;;;;;;;20.95;9.75;;;0.80;99.90;;;;;;5057644;28;20052;-71
2023/01/26 05:45:40;;;;;;;21.05;9.10;;;0.80;99.90;;;;;;5046738;28;20070;-71
2023/01/26 05:48:06;;;;;;;20.42;9.60;;;0.80;99.90;;;;;;5052879;28;20045;-71
2023/01/26 05:50:32;;;;;;;18.27;8.65;;;0.80;99.90;;;;;;5042909;28;20167;-71
2023/01/26 05:52:59;;;;;;;18.40;9.10;;;0.80;99.90;;;;;;5050084;28;20049;-72
2023/01/26 05:55:25;;;;;;;20.08;8.80;;;0.80;99.90;;;;;;5047972;28;20044;-72
2023/01/26 05:57:51;;;;;;;23.38;9.63;;;0.80;99.90;;;;;;5047158;28;20045;-72
2023/01/26 06:00:17;;;;;;;20.58;9.80;;;0.80;99.90;;;;;;5040667;28;20425;-72
2023/01/26 06:02:43;;;;;;;18.08;8.38;;;0.80;99.90;;;;;;5044996;28;20112;-72
2023/01/26 06:05:09;;;;;;;22.42;9.65;;;0.80;99.90;;;;;;5038844;28;20588;-72
2023/01/26 06:07:35;;;;;;;21.65;9.02;;;0.80;99.90;;;;;;5085111;28;20507;-72
2023/01/26 06:10:00;;;;;;;18.67;9.07;;;0.90;99.90;;;;;;5046912;28;20056;-72
2023/01/26 06:12:30;;;;;;;22.50;10.10;;;0.90;99.90;;;;;;5067660;28;20042;-71
2023/01/26 06:14:57;;;;;;;20.60;9.13;;;0.90;99.90;;;;;;5042002;28;20410;-72
2023/01/26 06:17:23;;;;;;;19.47;9.33;;;0.90;99.90;;;;;;5052656;28;21081;-73
2023/01/26 06:19:48;;;;;;;18.38;9.15;;;0.90;99.90;;;;;;5044029;28;20479;-72
2023/01/26 06:22:14;;;;;;;22.13;9.10;;;0.90;99.90;;;;;;5045022;28;20075;-72
2023/01/26 06:24:40;;;;;;;19.95;8.50;;;0.90;99.90;;;;;;5047866;28;20045;-72
2023/01/26 06:27:10;;;;;;;20.95;9.25;;;0.90;99.90;;;;;;5050858;28;20049;-72
2023/01/26 06:29:36;;;;;;;21.98;9.35;;;0.90;99.90;;;;;;5049640;28;20033;-72
2023/01/26 06:32:01;;;;;;;22.25;10.20;;;0.90;99.90;;;;;;5045146;28;20049;-72
2023/01/26 06:34:27;;;;;;;17.58;9.05;;;0.90;99.90;;;;;;5042602;28;20048;-73
2023/01/26 06:36:53;;;;;;;19.33;9.70;;;0.90;99.90;;;;;;5049842;28;20151;-72
2023/01/26 06:39:19;;;;;;;19.75;9.20;;;0.90;99.90;;;;;;5049246;28;20392;-72
2023/01/26 06:41:45;;;;;;;21.60;8.98;;;0.90;99.90;;;;;;5050631;28;20128;-73
2023/01/26 06:44:10;;;;;;;19.98;9.60;;;1.00;99.90;;;;;;5043746;28;20219;-72
2023/01/26 06:46:36;;;;;;;20.98;9.60;;;1.00;99.90;;;;;;5042789;28;20048;-72
2023/01/26 06:49:03;;;;;;;23.15;9.43;;;1.00;99.90;;;;;;5041906;28;20033;-72
2023/01/26 06:51:40;;;;;;;22.17;9.35;;;1.00;99.90;;;;;;5046214;28;20084;-72
2023/01/26 06:54:08;;;;;;;;;;;1.00;99.90;;;;;;5052345;28;20053;-72
2023/01/26 06:56:34;;;;;;;23.00;10.15;;;1.00;99.90;;;;;;5044522;28;19952;-72
2023/01/26 06:58:59;;;;;;;23.30;9.93;;;1.00;99.90;;;;;;5044151;28;20394;-72
2023/01/26 07:01:26;;;;;;;28.95;11.55;;;1.00;99.90;;;;;;5049569;28;20037;-72
2023/01/26 07:03:53;;;;;;;26.98;11.48;;;1.00;99.90;;;;;;5051382;28;20067;-72
2023/01/26 07:06:19;;;;;;;32.40;11.52;;;1.00;99.90;;;;;;5048227;28;20051;-72
2023/01/26 07:08:45;;;;;;;28.48;11.85;;;1.00;99.90;;;;;;5047385;28;20055;-72
2023/01/26 07:11:11;;;;;;;30.92;12.40;;;1.00;99.90;;;;;;5043308;28;20045;-73
2023/01/26 07:13:38;;;;;;;30.08;11.35;;;1.00;99.90;;;;;;5045714;28;20499;-72
2023/01/26 07:16:06;;;;;;;35.25;11.90;;;1.00;99.90;;;;;;5046781;28;20060;-72
2023/01/26 07:18:36;;;;;;;27.77;11.57;;;1.00;99.90;;;;;;5045940;28;20476;-73
2023/01/26 07:21:03;;;;;;;38.25;13.40;;;1.10;99.90;;;;;;5046380;28;20124;-72
2023/01/26 07:23:29;;;;;;;45.60;13.55;;;1.10;99.90;;;;;;5037167;28;20048;-73
2023/01/26 07:25:54;;;;;;;31.80;12.90;;;1.10;99.90;;;;;;5040042;28;20052;-73
2023/01/26 07:28:20;;;;;;;43.75;14.55;;;1.10;99.90;;;;;;5043303;28;20041;-73
2023/01/26 07:30:49;;;;;;;32.25;12.88;;;1.10;99.90;;;;;;5040063;28;20137;-73
2023/01/26 07:33:15;;;;;;;44.00;12.98;;;1.10;99.90;;;;;;5036210;28;20049;-73
2023/01/26 07:35:41;;;;;;;46.33;13.57;;;1.10;99.90;;;;;;5042802;28;20045;-73
2023/01/26 07:38:07;;;;;;;44.72;14.20;;;1.10;99.90;;;;;;5043762;28;20444;-73
2023/01/26 07:40:33;;;;;;;41.10;14.75;;;1.10;99.90;;;;;;5047143;28;20041;-73
2023/01/26 07:42:59;;;;;;;39.03;14.63;;;1.10;99.90;;;;;;5047019;28;20048;-73
2023/01/26 07:45:25;;;;;;;52.22;14.57;;;1.10;99.90;;;;;;5032567;28;20033;-73
2023/01/26 07:47:54;;;;;;;59.58;14.85;;;1.10;99.90;;;;;;5047947;28;20059;-73
2023/01/26 07:50:20;;;;;;;52.95;15.52;;;1.20;99.90;;;;;;5041732;28;20041;-73
2023/01/26 07:52:47;;;;;;;41.80;14.52;;;1.20;99.90;;;;;;5045781;28;20535;-73
2023/01/26 07:55:13;;;;;;;49.13;13.35;;;1.10;99.90;;;;;;5050629;28;20083;-73
2023/01/26 07:57:39;;;;;;;55.92;14.88;;;1.20;99.90;;;;;;5041362;28;20807;-73
2023/01/26 08:00:06;;;;;;;51.17;14.65;;;1.20;99.90;;;;;;5042240;28;20038;-73
2023/01/26 08:02:32;;;;;;;54.40;15.13;;;1.10;99.90;;;;;;5049390;28;20045;-73
2023/01/26 08:04:59;;;;;;;59.95;15.23;;;1.20;99.90;;;;;;5049684;28;20045;-71
2023/01/26 08:07:25;;;;;;;54.92;15.85;;;1.20;99.90;;;;;;5041839;28;20075;-73
2023/01/26 08:09:51;;;;;;;72.10;15.90;;;1.20;99.90;;;;;;5047422;28;20428;-73
2023/01/26 08:12:17;;;;;;;58.45;15.48;;;1.20;99.90;;;;;;5049204;28;20137;-73
2023/01/26 08:14:45;;;;;;;61.00;16.35;;;1.20;99.90;;;;;;5040477;28;20535;-74
2023/01/26 08:17:11;;;;;;;73.10;16.52;;;1.20;99.90;;;;;;5049704;28;20496;-73
2023/01/26 08:19:37;;;;;;;61.88;16.13;;;1.20;99.90;;;;;;5048714;28;20055;-73
2023/01/26 08:22:03;;;;;;;74.03;18.92;;;1.20;99.90;;;;;;5047853;28;20045;-73
2023/01/26 08:24:29;;;;;;;52.10;16.38;;;1.20;99.90;;;;;;5041460;28;20048;-73
2023/01/26 08:26:55;;;;;;;50.22;17.38;;;1.20;99.90;;;;;;5044606;28;20123;-73
2023/01/26 08:29:20;;;;;;;52.92;16.75;;;1.30;99.90;;;;;;5046896;28;20246;-73
2023/01/26 08:31:46;;;;;;;55.17;17.13;;;1.30;99.90;;;;;;5044664;28;20400;-73
2023/01/26 08:34:12;;;;;;;83.82;19.23;;;1.30;99.90;;;;;;5046346;28;20443;-73
2023/01/26 08:36:38;;;;;;;84.38;18.38;;;1.30;99.90;;;;;;5036275;28;20080;-84
2023/01/26 08:39:04;;;;;;;64.40;19.00;;;1.30;99.90;;;;;;5050021;28;20098;-72
2023/01/26 08:41:31;;;;;;;61.53;17.23;;;1.40;99.90;;;;;;5040161;28;20052;-80
2023/01/26 08:43:58;;;;;;;64.30;18.48;;;1.40;99.90;;;;;;5045964;28;20044;-80
2023/01/26 08:46:24;;;;;;;64.85;19.75;;;1.40;99.90;;;;;;5043307;28;20079;-78
2023/01/26 08:48:50;;;;;;;59.75;19.70;;;1.40;99.90;;;;;;5048070;28;20454;-77
2023/01/26 08:51:16;;;;;;;68.90;20.55;;;1.40;99.90;;;;;;5043959;28;20056;-77
2023/01/26 08:53:42;;;;;;;76.50;19.77;;;1.50;99.90;;;;;;5048631;28;20060;-75
2023/01/26 08:56:11;;;;;;;55.55;19.05;;;1.50;99.90;;;;;;5050044;28;20041;-76
2023/01/26 08:58:37;;;;;;;57.35;19.83;;;1.50;99.90;;;;;;5046107;28;20045;-76
2023/01/26 09:01:07;;;;;;;71.10;19.80;;;1.50;99.90;;;;;;5047606;28;20044;-76
2023/01/26 09:03:33;;;;;;;56.10;19.10;;;1.60;99.90;;;;;;5049220;28;20327;-76
2023/01/26 09:06:00;;;;;;;58.83;20.17;;;1.60;99.90;;;;;;5050971;28;20480;-76
2023/01/26 09:08:26;;;;;;;56.40;17.75;;;1.60;99.90;;;;;;5045883;28;20041;-77
2023/01/26 09:10:52;;;;;;;51.88;18.00;;;1.60;99.90;;;;;;5049286;28;20052;-79
2023/01/26 09:13:17;;;;;;;47.53;18.00;;;1.60;99.90;;;;;;5048247;28;20480;-77
2023/01/26 09:15:43;;;;;;;55.65;18.02;;;1.60;99.90;;;;;;5048182;28;20045;-76
2023/01/26 09:18:10;;;;;;;55.75;19.27;;;1.70;99.90;;;;;;5045292;28;20036;-76
2023/01/26 09:20:37;;;;;;;57.17;19.40;;;1.70;99.90;;;;;;5048320;28;20226;-76
2023/01/26 09:23:03;;;;;;;;;;;1.70;99.90;;;;;;5046303;28;20547;-72
2023/01/26 09:25:29;;;;;;;47.60;17.20;;;1.70;99.90;;;;;;5048916;28;20007;-72
2023/01/26 09:27:55;;;;;;;45.47;16.77;;;1.70;99.90;;;;;;5050205;28;20412;-71
2023/01/26 09:30:23;;;;;;;58.33;18.92;;;1.70;99.90;;;;;;5047956;28;20071;-72
2023/01/26 09:32:49;;;;;;;50.60;17.90;;;1.70;99.90;;;;;;5045445;28;20496;-76
2023/01/26 09:35:15;;;;;;;45.35;18.50;;;1.70;99.90;;;;;;5040252;28;20045;-75
2023/01/26 09:37:44;;;;;;;49.92;18.13;;;1.70;99.90;;;;;;5046502;28;20049;-76
2023/01/26 09:40:43;;;;;;;46.83;18.30;;;1.70;99.90;;;;;;5049869;28;20040;-76
2023/01/26 09:43:20;;;;;;;51.45;19.02;;;1.80;99.90;;;;;;5030272;28;20056;-75
2023/01/26 09:46:06;;;;;;;43.22;16.40;;;1.70;99.90;;;;;;5053539;28;20055;-76
2023/01/26 09:48:54;;;;;;;48.75;18.08;;;1.70;99.90;;;;;;5052398;28;20158;-77
2023/01/26 09:51:37;;;;;;;46.20;17.33;;;1.70;99.90;;;;;;5046131;28;20060;-77
2023/01/26 09:54:24;;;;;;;44.20;17.23;;;1.80;99.90;;;;;;5049715;28;20091;-76
2023/01/26 09:56:49;;;;;;;51.30;17.15;;;1.80;99.90;;;;;;5034746;28;20128;-77
2023/01/26 09:59:38;;;;;;;54.33;19.17;;;1.80;99.90;;;;;;5035220;28;20240;-78
2023/01/26 10:02:36;;;;;;;55.65;18.35;;;1.90;99.90;;;;;;5034607;28;20071;-76
2023/01/26 10:05:13;;;;;;;52.47;18.25;;;1.90;99.90;;;;;;5047062;28;20120;-74
2023/01/26 10:07:44;;;;;;;59.42;16.65;;;2.00;99.90;;;;;;5045815;28;20041;-76
2023/01/26 10:10:20;;;;;;;60.00;16.85;;;2.10;99.90;;;;;;5034278;28;20061;-78
2023/01/26 10:12:50;;;;;;;66.13;15.02;;;2.20;99.90;;;;;;5048584;28;20045;-77
2023/01/26 10:15:40;;;;;;;58.55;13.85;;;2.40;99.90;;;;;;5040432;28;20049;-77
2023/01/26 10:18:15;;;;;;;59.92;12.00;;;2.60;99.90;;;;;;5035673;28;20037;-76
2023/01/26 10:20:46;;;;;;;55.85;11.70;;;2.70;99.90;;;;;;5044298;28;20389;-78
2023/01/26 10:23:28;;;;;;;52.33;10.77;;;2.90;99.90;;;;;;5049511;28;20045;-71
2023/01/26 10:26:06;;;;;;;52.00;10.57;;;3.10;99.90;;;;;;5033879;28;20042;-79
2023/01/26 10:28:36;;;;;;;62.95;10.82;;;3.40;99.90;;;;;;5045347;28;20511;-78
2023/01/26 10:31:04;;;;;;;56.00;10.18;;;3.60;99.90;;;;;;5051899;28;20374;-79
2023/01/26 10:33:36;;;;;;;54.85;10.18;;;3.80;99.90;;;;;;5046926;28;20053;-72
2023/01/26 10:36:05;;;;;;;51.63;10.57;;;4.00;99.90;;;;;;5050107;28;20071;-71
2023/01/26 10:38:36;;;;;;;50.00;9.68;;;4.10;99.90;;;;;;5053600;28;20069;-72
2023/01/26 10:41:19;;;;;;;47.40;8.45;;;4.30;99.90;;;;;;5050625;28;20399;-73
2023/01/26 10:43:58;;;;;;;47.38;8.70;;;4.40;99.90;;;;;;5045530;28;20124;-73
2023/01/26 10:46:29;;;;;;;45.85;8.43;;;4.50;99.90;;;;;;5067641;28;20049;-75
2023/01/26 10:48:58;;;;;;;48.40;8.35;;;4.60;99.90;;;;;;5052414;28;20052;-71
2023/01/26 10:51:33;;;;;;;49.97;8.00;;;4.80;99.90;;;;;;5048143;28;20083;-72
2023/01/26 10:54:24;;;;;;;47.92;7.95;;;4.80;99.90;;;;;;5051510;28;20045;-73
2023/01/26 10:57:12;;;;;;;41.15;8.00;;;4.90;99.90;;;;;;5043779;28;20044;-77
2023/01/26 11:00:24;;;;;;;41.85;6.75;;;5.00;99.90;;;;;;5041393;28;20120;-79
2023/01/26 11:02:57;;;;;;;43.08;6.75;;;5.10;99.90;;;;;;5040915;28;20049;-84
2023/01/26 11:05:27;;;;;;;40.25;7.43;;;5.30;99.90;;;;;;5049877;28;20038;-88
2023/01/26 11:08:05;;;;;;;38.20;7.30;;;5.40;99.90;;;;;;5052188;28;20049;-88
2023/01/26 11:10:38;;;;;;;40.88;6.50;;;5.40;99.90;;;;;;5050981;28;20040;-89
2023/01/26 11:13:15;;;;;;;43.17;7.45;;;5.50;99.90;;;;;;5052755;28;20045;-80
2023/01/26 11:15:43;;;;;;;31.10;5.97;;;5.60;99.90;;;;;;5045434;28;20063;-73
2023/01/26 11:18:18;;;;;;;39.42;6.10;;;5.70;99.90;;;;;;5042675;28;20503;-74
2023/01/26 11:20:55;;;;;;;33.08;6.55;;;5.70;99.90;;;;;;5040560;28;20357;-72
2023/01/26 11:23:40;;;;;;;;;;;5.80;99.90;;;;;;5048981;28;20090;-79
2023/01/26 11:26:25;;;;;;;30.23;5.68;;;5.80;99.90;;;;;;5038772;28;20385;-71
2023/01/26 11:29:06;;;;;;;37.70;6.35;;;5.90;99.90;;;;;;5047755;28;20711;-71
2023/01/26 11:32:08;;;;;;;35.45;5.60;;;5.90;99.90;;;;;;5049343;28;20044;-75
2023/01/26 11:34:49;;;;;;;27.52;5.50;;;6.00;99.90;;;;;;5049176;28;21679;-74
2023/01/26 11:37:35;;;;;;;31.13;6.55;;;6.10;99.90;;;;;;5049906;28;20057;-75
2023/01/26 11:40:24;;;;;;;29.25;6.00;;;6.20;99.90;;;;;;5038514;28;20052;-73
2023/01/26 11:42:50;;;;;;;33.85;5.63;;;6.20;99.90;;;;;;5045799;28;20045;-74
2023/01/26 11:45:25;;;;;;;29.75;6.25;;;6.30;99.90;;;;;;5048110;28;20052;-77
2023/01/26 11:48:12;;;;;;;28.33;5.20;;;6.30;99.90;;;;;;5047755;28;20104;-71
2023/01/26 11:50:52;;;;;;;33.53;5.78;;;6.40;99.90;;;;;;5051306;28;20045;-78
2023/01/26 11:53:19;;;;;;;30.92;4.97;;;6.40;99.90;;;;;;5047680;28;20488;-76
2023/01/26 11:56:06;;;;;;;30.52;4.90;;;6.50;99.90;;;;;;5048272;28;20140;-78
2023/01/26 11:58:31;;;;;;;;;;;6.50;99.90;;;;;;5047394;28;20135;-78
2023/01/26 12:01:12;;;;;;;27.15;5.05;;;6.60;99.90;;;;;;5049307;28;20027;-75
2023/01/26 12:03:50;;;;;;;24.88;5.60;;;6.60;99.90;;;;;;5047909;28;20123;-82
2023/01/26 12:06:19;;;;;;;31.02;4.80;;;6.70;99.90;;;;;;5047473;28;20434;-77
2023/01/26 12:08:57;;;;;;;23.33;4.47;;;6.80;99.90;;;;;;5042835;28;20045;-73
2023/01/26 12:11:44;;;;;;;26.92;5.22;;;6.70;99.90;;;;;;5046053;28;20037;-73
2023/01/26 12:14:35;;;;;;;24.85;4.68;;;6.80;99.90;;;;;;5042897;28;20086;-74
2023/01/26 12:17:34;;;;;;;26.33;4.65;;;6.80;99.90;;;;;;5045786;28;20060;-76
2023/01/26 12:20:03;;;;;;;27.30;4.78;;;6.90;99.90;;;;;;5036828;28;20407;-75
2023/01/26 12:22:36;;;;;;;22.63;4.28;;;7.00;99.90;;;;;;5043960;28;20392;-72
2023/01/26 12:25:17;;;;;;;22.23;4.35;;;7.00;99.90;;;;;;5042811;28;20103;-73
2023/01/26 12:27:54;;;;;;;23.60;3.80;;;7.10;99.90;;;;;;5037677;28;20048;-74
2023/01/26 12:30:42;;;;;;;21.80;3.50;;;7.10;99.90;;;;;;5043699;28;20041;-73
2023/01/26 12:33:09;;;;;;;20.38;4.40;;;7.10;99.90;;;;;;5044762;28;20789;-71
2023/01/26 12:36:19;;;;;;;24.48;3.80;;;7.20;99.90;;;;;;5049315;28;20400;-71
2023/01/26 12:38:53;;;;;;;24.10;4.72;;;7.20;99.90;;;;;;5035986;28;20060;-72
2023/01/26 12:41:44;;;;;;;30.40;4.75;;;7.30;99.90;;;;;;5035021;28;20542;-73
2023/01/26 12:44:26;;;;;;;21.83;4.30;;;7.30;99.90;;;;;;5047668;28;20061;-79
2023/01/26 12:47:01;;;;;;;27.30;4.72;;;7.40;99.90;;;;;;5047985;28;20049;-74
2023/01/26 12:49:44;;;;;;;19.88;3.60;;;7.40;99.90;;;;;;5048482;28;20088;-73
2023/01/26 12:52:44;;;;;;;20.98;4.85;;;7.30;99.90;;;;;;5047460;28;20679;-73
2023/01/26 12:55:21;;;;;;;22.02;4.18;;;7.30;99.90;;;;;;5044185;28;20090;-78
2023/01/26 12:57:54;;;;;;;15.10;3.35;;;7.30;99.90;;;;;;5047874;28;20503;-81
2023/01/26 13:00:22;;;;;;;24.20;4.20;;;7.30;99.90;;;;;;5047891;28;20049;-76
2023/01/26 13:02:55;;;;;;;18.13;4.60;;;7.30;99.90;;;;;;5047332;28;20120;-73
2023/01/26 13:05:32;;;;;;;22.17;4.53;;;7.30;99.90;;;;;;5049156;28;20132;-76
2023/01/26 13:08:18;;;;;;;16.60;3.38;;;7.30;99.90;;;;;;5049499;28;20094;-76
2023/01/26 13:10:49;;;;;;;21.58;3.13;;;7.30;99.90;;;;;;5048558;28;20106;-75
2023/01/26 13:13:17;;;;;;;21.15;3.50;;;7.40;99.90;;;;;;5048857;28;20515;-83
2023/01/26 13:15:42;;;;;;;17.80;3.45;;;7.50;99.90;;;;;;5048193;28;20037;-82
2023/01/26 13:18:16;;;;;;;23.98;4.40;;;7.40;99.90;;;;;;5045788;28;20496;-78
2023/01/26 13:20:42;;;;;;;15.55;3.40;;;7.50;99.90;;;;;;5040075;28;20399;-77
2023/01/26 13:23:44;;;;;;;18.00;3.47;;;7.40;99.90;;;;;;5044184;28;20045;-75
2023/01/26 13:26:21;;;;;;;20.38;2.95;;;7.30;99.90;;;;;;5043361;28;20049;-76
2023/01/26 13:28:48;;;;;;;18.42;4.22;;;7.30;99.90;;;;;;5046803;28;20047;-80
2023/01/26 13:31:31;;;;;;;21.95;3.53;;;7.30;99.90;;;;;;5048204;28;20069;-76
2023/01/26 13:34:06;;;;;;;20.02;3.60;;;7.30;99.90;;;;;;5047891;28;20127;-77
2023/01/26 13:36:35;;;;;;;22.90;4.18;;;7.30;99.90;;;;;;5043159;28;20057;-77
2023/01/26 13:39:11;;;;;;;20.95;3.45;;;7.20;99.90;;;;;;5044773;28;20052;-77
2023/01/26 13:41:45;;;;;;;22.00;4.03;;;7.20;99.90;;;;;;5046929;28;20458;-77
2023/01/26 13:44:19;;;;;;;20.13;3.35;;;7.20;99.90;;;;;;5045789;28;20555;-77
2023/01/26 13:46:55;;;;;;;16.80;3.17;;;7.30;99.90;;;;;;5043266;28;20048;-73